createdAt,value
2017-10-07T00:01:19.111Z,6.50
2017-10-07T00:03:46.563Z,6.27
2017-10-07T00:06:14.039Z,6.10
2017-10-07T00:08:41.518Z,6.10
2017-10-07T00:11:08.972Z,6.90
2017-10-07T00:13:36.437Z,6.07
2017-10-07T00:16:03.914Z,6.40
2017-10-07T00:18:31.670Z,6.03
2017-10-07T00:20:59.258Z,5.77
2017-10-07T00:23:26.731Z,5.90
2017-10-07T00:25:54.182Z,6.00
2017-10-07T00:28:21.630Z,6.30
2017-10-07T00:30:49.107Z,6.27
2017-10-07T00:33:16.554Z,6.17
2017-10-07T00:35:44.010Z,7.00
2017-10-07T00:38:11.500Z,6.80
2017-10-07T00:40:38.955Z,6.60
2017-10-07T00:43:06.403Z,5.17
2017-10-07T00:45:33.891Z,5.87
2017-10-07T00:48:01.346Z,6.53
2017-10-07T00:50:28.810Z,6.77
2017-10-07T00:52:56.295Z,6.43
2017-10-07T00:55:23.751Z,6.00
2017-10-07T00:57:51.210Z,6.57
2017-10-07T01:00:18.686Z,6.10
2017-10-07T01:02:46.138Z,6.50
2017-10-07T01:05:13.595Z,6.70
2017-10-07T01:07:41.077Z,6.97
2017-10-07T01:10:08.533Z,6.53
2017-10-07T01:12:35.986Z,7.17
2017-10-07T01:15:03.467Z,7.40
2017-10-07T01:17:30.918Z,7.53
2017-10-07T01:19:58.395Z,6.57
2017-10-07T01:22:25.870Z,6.77
2017-10-07T01:24:53.339Z,7.03
2017-10-07T01:27:20.799Z,6.57
2017-10-07T01:29:48.274Z,6.20
2017-10-07T01:32:15.730Z,7.20
2017-10-07T01:34:43.182Z,6.67
2017-10-07T01:37:10.663Z,7.00
2017-10-07T01:39:38.115Z,6.70
2017-10-07T01:42:05.570Z,6.63
2017-10-07T01:44:33.051Z,7.03
2017-10-07T01:47:00.506Z,6.43
2017-10-07T01:49:27.964Z,7.83
2017-10-07T01:51:55.440Z,6.53
2017-10-07T01:54:22.895Z,6.80
2017-10-07T01:56:50.352Z,6.50
2017-10-07T01:59:17.853Z,7.07
2017-10-07T02:01:45.288Z,7.70
2017-10-07T02:04:12.774Z,6.73
2017-10-07T02:06:40.226Z,7.07
2017-10-07T02:09:07.702Z,6.50
2017-10-07T02:11:35.153Z,7.43
2017-10-07T02:14:02.610Z,7.13
2017-10-07T02:16:30.086Z,7.07
2017-10-07T02:18:57.538Z,7.00
2017-10-07T02:21:24.994Z,7.67
2017-10-07T02:23:52.475Z,7.60
2017-10-07T02:26:19.930Z,7.00
2017-10-07T02:28:47.378Z,6.97
2017-10-07T02:31:14.850Z,6.77
2017-10-07T02:33:42.302Z,6.30
2017-10-07T02:36:09.747Z,7.63
2017-10-07T02:38:37.222Z,7.00
2017-10-07T02:41:04.671Z,6.97
2017-10-07T02:43:32.118Z,6.40
2017-10-07T02:45:59.594Z,7.07
2017-10-07T02:48:27.054Z,6.20
2017-10-07T02:50:54.506Z,7.87
2017-10-07T02:53:21.991Z,7.40
2017-10-07T02:55:49.443Z,7.20
2017-10-07T02:58:16.894Z,6.67
2017-10-07T03:00:44.366Z,7.63
2017-10-07T03:03:11.814Z,7.37
2017-10-07T03:05:39.266Z,7.60
2017-10-07T03:08:06.741Z,6.73
2017-10-07T03:10:34.195Z,7.10
2017-10-07T03:13:01.650Z,7.23
2017-10-07T03:15:29.121Z,7.33
2017-10-07T03:17:56.576Z,7.17
2017-10-07T03:20:24.022Z,7.53
2017-10-07T03:22:51.494Z,7.00
2017-10-07T03:25:18.950Z,7.73
2017-10-07T03:27:46.397Z,6.70
2017-10-07T03:30:13.870Z,7.50
2017-10-07T03:32:41.325Z,7.67
2017-10-07T03:35:08.773Z,7.47
2017-10-07T03:37:36.245Z,6.90
2017-10-07T03:40:03.708Z,7.57
2017-10-07T03:42:31.162Z,8.03
2017-10-07T03:44:58.633Z,7.40
2017-10-07T03:47:26.088Z,8.70
2017-10-07T03:49:53.541Z,7.80
2017-10-07T03:52:21.018Z,7.20
2017-10-07T03:54:48.465Z,8.53
2017-10-07T03:57:15.914Z,8.97
2017-10-07T03:59:43.381Z,8.97
2017-10-07T04:02:10.830Z,9.13
2017-10-07T04:04:38.278Z,8.97
2017-10-07T04:07:05.754Z,10.10
2017-10-07T04:09:33.211Z,9.63
2017-10-07T04:12:00.658Z,9.10
2017-10-07T04:14:28.130Z,9.40
2017-10-07T04:16:55.590Z,9.23
2017-10-07T04:19:23.038Z,9.60
2017-10-07T04:21:50.506Z,9.17
2017-10-07T04:24:17.958Z,9.87
2017-10-07T04:26:45.414Z,8.70
2017-10-07T04:29:12.886Z,9.43
2017-10-07T04:31:40.346Z,8.20
2017-10-07T04:34:07.805Z,8.30
2017-10-07T04:36:35.282Z,8.27
2017-10-07T04:39:02.735Z,8.43
2017-10-07T04:41:30.178Z,7.30
2017-10-07T04:43:57.655Z,8.20
2017-10-07T04:46:25.126Z,7.70
2017-10-07T04:48:52.578Z,7.80
2017-10-07T04:51:20.047Z,8.07
2017-10-07T04:53:47.502Z,7.77
2017-10-07T04:56:14.954Z,7.13
2017-10-07T04:58:42.428Z,7.17
2017-10-07T05:01:10.115Z,7.10
2017-10-07T05:03:37.671Z,7.63
2017-10-07T05:06:05.338Z,7.43
2017-10-07T05:08:32.795Z,6.83
2017-10-07T05:11:00.257Z,7.50
2017-10-07T05:13:27.740Z,8.00
2017-10-07T05:15:55.190Z,7.43
2017-10-07T05:18:22.712Z,7.67
2017-10-07T05:20:50.194Z,7.20
2017-10-07T05:23:24.846Z,7.83
2017-10-07T05:25:52.389Z,11.67
2017-10-07T05:28:19.846Z,7.80
2017-10-07T05:30:47.345Z,8.90
2017-10-07T05:33:15.356Z,7.73
2017-10-07T05:35:42.809Z,6.90
2017-10-07T05:38:10.279Z,7.50
2017-10-07T05:40:37.755Z,7.67
2017-10-07T05:43:05.206Z,7.50
2017-10-07T05:45:32.657Z,7.40
2017-10-07T05:48:00.131Z,7.20
2017-10-07T05:50:27.587Z,7.73
2017-10-07T05:52:55.042Z,7.20
2017-10-07T05:55:22.518Z,7.20
2017-10-07T05:57:49.969Z,7.30
2017-10-07T06:00:17.422Z,7.07
2017-10-07T06:02:44.903Z,7.23
2017-10-07T06:05:12.357Z,7.60
2017-10-07T06:07:39.807Z,7.03
2017-10-07T06:10:07.278Z,6.50
2017-10-07T06:12:34.735Z,6.67
2017-10-07T06:15:02.195Z,7.20
2017-10-07T06:17:29.694Z,7.20
2017-10-07T06:19:57.148Z,7.33
2017-10-07T06:22:24.606Z,7.43
2017-10-07T06:24:52.078Z,7.20
2017-10-07T06:27:19.525Z,7.30
2017-10-07T06:29:47.001Z,7.60
2017-10-07T06:32:14.486Z,7.90
2017-10-07T06:34:41.937Z,7.50
2017-10-07T06:37:09.394Z,7.97
2017-10-07T06:39:36.874Z,7.43
2017-10-07T06:42:04.326Z,7.90
2017-10-07T06:44:31.778Z,8.83
2017-10-07T06:46:59.265Z,8.20
2017-10-07T06:49:26.754Z,8.60
2017-10-07T06:51:54.206Z,9.20
2017-10-07T06:54:21.678Z,8.53
2017-10-07T06:56:49.130Z,9.17
2017-10-07T06:59:16.594Z,8.60
2017-10-07T07:01:44.073Z,8.57
2017-10-07T07:04:11.550Z,9.40
2017-10-07T07:06:39.003Z,9.50
2017-10-07T07:09:06.480Z,8.73
2017-10-07T07:11:33.943Z,8.43
2017-10-07T07:14:01.394Z,8.57
2017-10-07T07:16:28.866Z,7.83
2017-10-07T07:18:56.335Z,10.30
2017-10-07T07:21:23.790Z,8.40
2017-10-07T07:23:51.295Z,7.87
2017-10-07T07:26:18.746Z,7.80
2017-10-07T07:28:46.194Z,7.60
2017-10-07T07:31:13.658Z,7.70
2017-10-07T07:33:41.111Z,8.13
2017-10-07T07:36:08.561Z,7.00
2017-10-07T07:38:36.042Z,7.80
2017-10-07T07:41:03.494Z,7.70
2017-10-07T07:43:30.943Z,7.20
2017-10-07T07:45:58.411Z,7.70
2017-10-07T07:48:25.869Z,6.70
2017-10-07T07:50:53.326Z,7.10
2017-10-07T07:53:20.801Z,7.60
2017-10-07T07:55:48.259Z,7.60
2017-10-07T07:58:15.722Z,7.47
2017-10-07T08:00:43.203Z,7.10
2017-10-07T08:03:10.659Z,6.70
2017-10-07T08:05:38.142Z,5.93
2017-10-07T08:08:05.641Z,6.63
2017-10-07T08:10:33.091Z,6.00
2017-10-07T08:13:00.566Z,6.73
2017-10-07T08:15:28.049Z,7.10
2017-10-07T08:17:55.497Z,6.13
2017-10-07T08:20:22.953Z,6.20
2017-10-07T08:22:50.434Z,7.80
2017-10-07T08:25:17.900Z,7.07
2017-10-07T08:27:45.365Z,6.03
2017-10-07T08:30:12.841Z,6.77
2017-10-07T08:32:40.298Z,6.97
2017-10-07T08:35:07.754Z,7.30
2017-10-07T08:37:35.230Z,5.83
2017-10-07T08:40:02.674Z,6.50
2017-10-07T08:42:30.122Z,6.30
2017-10-07T08:44:57.598Z,7.27
2017-10-07T08:47:25.058Z,6.57
2017-10-07T08:49:52.510Z,5.50
2017-10-07T08:52:19.979Z,5.53
2017-10-07T08:54:47.466Z,5.30
2017-10-07T08:57:14.922Z,5.70
2017-10-07T08:59:42.394Z,5.57
2017-10-07T09:02:09.850Z,6.30
2017-10-07T09:04:37.311Z,5.77
2017-10-07T09:07:04.782Z,4.90
2017-10-07T09:09:32.242Z,5.73
2017-10-07T09:11:59.725Z,5.80
2017-10-07T09:14:27.169Z,5.40
2017-10-07T09:16:54.616Z,5.47
2017-10-07T09:19:22.107Z,6.07
2017-10-07T09:21:49.570Z,5.13
2017-10-07T09:24:17.042Z,5.70
2017-10-07T09:26:44.486Z,4.47
2017-10-07T09:29:11.942Z,5.60
2017-10-07T09:31:39.434Z,5.60
2017-10-07T09:34:06.888Z,5.00
2017-10-07T09:36:34.334Z,5.87
2017-10-07T09:39:01.802Z,5.60
2017-10-07T09:41:29.253Z,5.53
2017-10-07T09:43:56.698Z,5.30
2017-10-07T09:46:24.177Z,6.07
2017-10-07T09:48:51.626Z,5.20
2017-10-07T09:51:19.078Z,5.40
2017-10-07T09:53:46.550Z,4.80
2017-10-07T09:56:14.003Z,4.63
2017-10-07T09:58:41.446Z,4.87
2017-10-07T10:01:08.922Z,5.43
2017-10-07T10:03:36.371Z,5.30
2017-10-07T10:06:03.818Z,5.63
2017-10-07T10:08:31.289Z,4.60
2017-10-07T10:10:58.734Z,4.90
2017-10-07T10:13:26.190Z,4.93
2017-10-07T10:15:53.662Z,4.57
2017-10-07T10:18:21.110Z,4.50
2017-10-07T10:20:48.563Z,4.67
2017-10-07T10:23:16.050Z,5.40
2017-10-07T10:25:43.494Z,4.90
2017-10-07T10:28:10.938Z,4.93
2017-10-07T10:30:38.410Z,5.33
2017-10-07T10:33:05.903Z,5.60
2017-10-07T10:35:33.359Z,5.00
2017-10-07T10:38:00.816Z,4.80
2017-10-07T10:40:28.293Z,5.10
2017-10-07T10:42:55.766Z,4.33
2017-10-07T10:45:23.218Z,4.50
2017-10-07T10:47:50.665Z,4.77
2017-10-07T10:50:18.143Z,4.43
2017-10-07T10:52:45.594Z,5.03
2017-10-07T10:55:13.041Z,4.47
2017-10-07T10:57:40.514Z,4.87
2017-10-07T11:00:07.962Z,4.43
2017-10-07T11:02:35.406Z,4.50
2017-10-07T11:05:02.884Z,5.40
2017-10-07T11:07:30.330Z,3.93
2017-10-07T11:09:57.779Z,4.60
2017-10-07T11:12:25.253Z,4.50
2017-10-07T11:14:52.710Z,4.50
2017-10-07T11:17:20.182Z,4.80
2017-10-07T11:19:47.647Z,4.00
2017-10-07T11:22:15.117Z,3.90
2017-10-07T11:24:42.589Z,3.80
2017-10-07T11:27:10.044Z,5.30
2017-10-07T11:29:37.522Z,4.57
2017-10-07T11:32:05.068Z,4.53
2017-10-07T11:34:33.053Z,4.57
2017-10-07T11:37:00.588Z,3.77
2017-10-07T11:39:28.063Z,4.33
2017-10-07T11:41:55.573Z,4.77
2017-10-07T11:44:23.060Z,4.30
2017-10-07T11:46:50.504Z,4.23
2017-10-07T11:49:17.955Z,4.50
2017-10-07T11:51:45.426Z,4.90
2017-10-07T11:54:12.874Z,4.77
2017-10-07T11:56:40.322Z,4.30
2017-10-07T11:59:07.798Z,5.07
2017-10-07T12:01:35.246Z,4.40
2017-10-07T12:04:02.711Z,4.87
2017-10-07T12:06:30.177Z,4.50
2017-10-07T12:08:57.626Z,5.03
2017-10-07T12:11:25.070Z,4.13
2017-10-07T12:13:52.542Z,4.43
2017-10-07T12:16:19.997Z,4.23
2017-10-07T12:18:47.447Z,4.30
2017-10-07T12:21:14.913Z,4.20
2017-10-07T12:23:42.362Z,4.07
2017-10-07T12:26:09.806Z,3.93
2017-10-07T12:28:37.281Z,5.40
2017-10-07T12:31:04.738Z,4.40
2017-10-07T12:33:32.193Z,4.57
2017-10-07T12:35:59.674Z,4.00
2017-10-07T12:38:27.125Z,4.23
2017-10-07T12:40:54.569Z,4.50
2017-10-07T12:43:22.042Z,4.40
2017-10-07T12:45:49.494Z,4.10
2017-10-07T12:48:16.937Z,4.00
2017-10-07T12:50:44.410Z,4.77
2017-10-07T12:53:11.858Z,4.03
2017-10-07T12:55:39.311Z,4.00
2017-10-07T12:58:06.782Z,4.20
2017-10-07T13:00:34.230Z,4.47
2017-10-07T13:03:01.674Z,5.10
2017-10-07T13:05:29.154Z,4.43
2017-10-07T13:07:56.602Z,4.70
2017-10-07T13:10:24.056Z,5.07
2017-10-07T13:12:51.526Z,4.57
2017-10-07T13:15:18.974Z,4.57
2017-10-07T13:17:46.421Z,4.70
2017-10-07T13:20:13.894Z,4.50
2017-10-07T13:22:41.345Z,4.80
2017-10-07T13:25:08.799Z,5.10
2017-10-07T13:27:36.274Z,4.70
2017-10-07T13:30:03.718Z,4.70
2017-10-07T13:32:31.165Z,4.70
2017-10-07T13:34:58.641Z,4.53
2017-10-07T13:37:26.086Z,4.60
2017-10-07T13:39:53.542Z,4.73
2017-10-07T13:42:21.014Z,4.60
2017-10-07T13:44:48.454Z,4.40
2017-10-07T13:47:15.911Z,5.50
2017-10-07T13:49:43.385Z,4.50
2017-10-07T13:52:10.829Z,4.00
2017-10-07T13:54:38.282Z,4.20
2017-10-07T13:57:05.758Z,4.80
2017-10-07T13:59:33.215Z,4.67
2017-10-07T14:02:00.675Z,5.10
2017-10-07T14:04:28.150Z,4.50
2017-10-07T14:06:55.598Z,4.50
2017-10-07T14:09:23.061Z,4.27
2017-10-07T14:11:50.533Z,4.53
2017-10-07T14:14:17.978Z,5.13
2017-10-07T14:16:45.431Z,4.40
2017-10-07T14:19:12.905Z,4.70
2017-10-07T14:21:40.361Z,4.57
2017-10-07T14:24:07.810Z,6.03
2017-10-07T14:26:35.281Z,4.70
2017-10-07T14:29:02.731Z,6.37
2017-10-07T14:31:30.194Z,4.77
2017-10-07T14:33:57.667Z,5.10
2017-10-07T14:36:25.118Z,4.70
2017-10-07T14:38:52.566Z,5.10
2017-10-07T14:41:20.042Z,4.33
2017-10-07T14:43:47.499Z,4.90
2017-10-07T14:46:14.946Z,5.27
2017-10-07T14:48:42.414Z,4.67
2017-10-07T14:51:09.867Z,4.60
2017-10-07T14:53:37.313Z,4.60
2017-10-07T14:56:04.787Z,4.80
2017-10-07T14:58:32.234Z,4.97
2017-10-07T15:00:59.693Z,4.90
2017-10-07T15:03:27.170Z,4.83
2017-10-07T15:05:54.621Z,4.70
2017-10-07T15:08:22.070Z,5.30
2017-10-07T15:10:49.551Z,5.70
2017-10-07T15:13:17.004Z,4.47
2017-10-07T15:15:44.470Z,4.70
2017-10-07T15:18:11.950Z,4.77
2017-10-07T15:20:39.408Z,5.03
2017-10-07T15:23:06.858Z,5.10
2017-10-07T15:25:34.346Z,5.50
2017-10-07T15:28:01.794Z,5.03
2017-10-07T15:30:29.244Z,5.43
2017-10-07T15:32:58.790Z,4.60
2017-10-07T15:35:26.244Z,5.33
2017-10-07T15:37:59.547Z,4.40
2017-10-07T15:40:27.833Z,5.00
2017-10-07T15:42:55.318Z,5.27
2017-10-07T15:45:22.769Z,4.80
2017-10-07T15:47:50.222Z,4.90
2017-10-07T15:50:17.711Z,4.97
2017-10-07T15:52:45.162Z,5.00
2017-10-07T15:55:12.619Z,4.80
2017-10-07T15:57:40.102Z,5.47
2017-10-07T16:00:07.550Z,5.10
2017-10-07T16:02:35.004Z,5.20
2017-10-07T16:05:02.474Z,5.50
2017-10-07T16:07:29.928Z,4.70
2017-10-07T16:09:57.379Z,5.00
2017-10-07T16:12:24.854Z,5.63
2017-10-07T16:14:52.301Z,5.00
2017-10-07T16:17:19.759Z,5.40
2017-10-07T16:19:47.231Z,5.00
2017-10-07T16:22:14.677Z,5.80
2017-10-07T16:24:42.173Z,4.60
2017-10-07T16:27:09.647Z,4.97
2017-10-07T16:29:37.107Z,5.07
2017-10-07T16:32:04.554Z,5.17
2017-10-07T16:34:32.031Z,5.83
2017-10-07T16:36:59.962Z,5.63
2017-10-07T16:39:27.409Z,4.43
2017-10-07T16:41:55.078Z,4.93
2017-10-07T16:44:22.784Z,5.77
2017-10-07T16:46:51.743Z,5.70
2017-10-07T16:49:19.453Z,6.63
2017-10-07T16:51:51.039Z,5.43
2017-10-07T16:54:23.784Z,5.50
2017-10-07T16:56:51.243Z,5.47
2017-10-07T16:59:18.807Z,5.63
2017-10-07T17:01:46.285Z,6.30
2017-10-07T17:04:13.743Z,5.80
2017-10-07T17:06:41.218Z,6.37
2017-10-07T17:09:08.702Z,5.43
2017-10-07T17:11:36.183Z,5.30
2017-10-07T17:14:03.650Z,6.43
2017-10-07T17:16:31.126Z,5.77
2017-10-07T17:18:58.594Z,6.03
2017-10-07T17:21:26.066Z,6.03
2017-10-07T17:23:53.529Z,5.70
2017-10-07T17:26:20.981Z,6.03
2017-10-07T17:28:48.457Z,11.13
2017-10-07T17:31:15.907Z,6.17
2017-10-07T17:33:43.375Z,6.63
2017-10-07T17:36:10.850Z,5.90
2017-10-07T17:38:38.301Z,6.10
2017-10-07T17:41:05.763Z,5.80
2017-10-07T17:43:33.238Z,5.67
2017-10-07T17:46:00.690Z,5.97
2017-10-07T17:48:28.141Z,6.87
2017-10-07T17:50:55.606Z,5.93
2017-10-07T17:53:23.061Z,5.70
2017-10-07T17:55:50.502Z,6.30
2017-10-07T17:58:17.978Z,6.37
2017-10-07T18:00:45.432Z,6.10
2017-10-07T18:03:12.886Z,7.00
2017-10-07T18:05:40.362Z,6.73
2017-10-07T18:08:07.820Z,6.57
2017-10-07T18:10:35.270Z,6.97
2017-10-07T18:13:02.776Z,6.73
2017-10-07T18:15:30.239Z,6.40
2017-10-07T18:17:57.690Z,6.70
2017-10-07T18:20:25.162Z,6.30
2017-10-07T18:22:52.614Z,7.53
2017-10-07T18:25:20.078Z,6.03
2017-10-07T18:27:47.557Z,6.70
2017-10-07T18:30:15.008Z,6.30
2017-10-07T18:32:42.462Z,6.60
2017-10-07T18:35:09.950Z,6.00
2017-10-07T18:37:37.403Z,6.03
2017-10-07T18:40:04.864Z,6.77
2017-10-07T18:42:32.339Z,6.33
2017-10-07T18:44:59.794Z,6.70
2017-10-07T18:47:27.251Z,6.30
2017-10-07T18:49:54.726Z,6.90
2017-10-07T18:52:22.175Z,6.40
2017-10-07T18:54:49.626Z,6.70
2017-10-07T18:57:17.102Z,6.90
2017-10-07T18:59:44.551Z,6.40
2017-10-07T19:02:12.018Z,6.90
2017-10-07T19:04:45.883Z,7.20
2017-10-07T19:07:13.971Z,6.40
2017-10-07T19:09:47.910Z,6.70
2017-10-07T19:12:15.387Z,6.10
2017-10-07T19:14:42.841Z,6.80
2017-10-07T19:17:10.295Z,7.00
2017-10-07T19:19:37.770Z,7.43
2017-10-07T19:22:05.221Z,6.93
2017-10-07T19:24:32.678Z,7.37
2017-10-07T19:27:00.178Z,7.40
2017-10-07T19:29:27.642Z,6.60
2017-10-07T19:31:55.122Z,6.77
2017-10-07T19:34:23.053Z,6.00
2017-10-07T19:36:52.144Z,6.50
2017-10-07T19:39:22.408Z,6.20
2017-10-07T19:41:51.736Z,6.50
2017-10-07T19:44:26.036Z,6.50
2017-10-07T19:46:53.518Z,6.23
2017-10-07T19:49:21.787Z,7.50
2017-10-07T19:51:49.415Z,7.30
2017-10-07T19:54:16.892Z,7.40
2017-10-07T19:56:44.366Z,6.90
2017-10-07T19:59:13.205Z,7.03
2017-10-07T20:01:40.674Z,6.63
2017-10-07T20:04:08.223Z,7.17
2017-10-07T20:06:36.161Z,6.13
2017-10-07T20:09:04.745Z,8.27
2017-10-07T20:11:34.144Z,7.73
2017-10-07T20:14:02.694Z,8.20
2017-10-07T20:16:33.819Z,8.97
2017-10-07T20:19:01.274Z,8.20
2017-10-07T20:21:28.733Z,8.07
2017-10-07T20:23:57.356Z,7.70
2017-10-07T20:26:24.815Z,7.77
2017-10-07T20:28:52.286Z,8.27
2017-10-07T20:31:23.531Z,8.00
2017-10-07T20:33:52.527Z,8.00
2017-10-07T20:36:20.149Z,6.70
2017-10-07T20:38:47.617Z,7.80
2017-10-07T20:41:15.111Z,8.67
2017-10-07T20:43:42.622Z,9.83
2017-10-07T20:46:10.095Z,8.30
2017-10-07T20:48:37.579Z,7.33
2017-10-07T20:51:05.034Z,7.13
2017-10-07T20:53:32.496Z,6.73
2017-10-07T20:55:59.974Z,6.93
2017-10-07T20:58:27.443Z,6.57
2017-10-07T21:00:54.914Z,7.83
2017-10-07T21:03:22.383Z,7.30
2017-10-07T21:05:49.876Z,6.60
2017-10-07T21:08:17.328Z,7.03
2017-10-07T21:10:44.782Z,6.73
2017-10-07T21:13:12.265Z,7.77
2017-10-07T21:15:39.722Z,8.33
2017-10-07T21:18:07.473Z,7.20
2017-10-07T21:20:36.334Z,7.87
2017-10-07T21:23:03.795Z,8.37
2017-10-07T21:25:31.914Z,8.13
2017-10-07T21:27:59.402Z,8.13
2017-10-07T21:30:27.002Z,8.30
2017-10-07T21:32:54.470Z,8.20
2017-10-07T21:35:21.954Z,8.13
2017-10-07T21:37:49.414Z,9.27
2017-10-07T21:40:16.868Z,8.50
2017-10-07T21:42:44.342Z,8.50
2017-10-07T21:45:11.820Z,9.43
2017-10-07T21:47:39.278Z,7.93
2017-10-07T21:50:06.838Z,7.93
2017-10-07T21:52:34.318Z,9.73
2017-10-07T21:55:01.774Z,8.10
2017-10-07T21:57:29.229Z,10.17
2017-10-07T21:59:56.771Z,9.90
2017-10-07T22:02:24.250Z,11.93
2017-10-07T22:04:51.706Z,11.33
2017-10-07T22:07:19.182Z,8.87
2017-10-07T22:09:46.638Z,9.80
2017-10-07T22:12:14.096Z,8.93
2017-10-07T22:14:41.579Z,9.00
2017-10-07T22:17:09.057Z,8.13
2017-10-07T22:19:36.526Z,8.40
2017-10-07T22:22:04.011Z,8.00
2017-10-07T22:24:31.481Z,8.10
2017-10-07T22:26:58.930Z,9.27
2017-10-07T22:29:26.415Z,8.90
2017-10-07T22:31:53.891Z,8.63
2017-10-07T22:34:21.342Z,8.83
2017-10-07T22:36:48.794Z,8.03
2017-10-07T22:39:16.270Z,8.93
2017-10-07T22:41:43.742Z,8.93
2017-10-07T22:44:11.222Z,10.87
2017-10-07T22:46:38.698Z,8.50
2017-10-07T22:49:06.172Z,9.73
2017-10-07T22:51:33.623Z,9.00
2017-10-07T22:54:01.074Z,8.30
2017-10-07T22:56:28.554Z,7.20
2017-10-07T22:58:56.007Z,7.50
2017-10-07T23:01:23.490Z,7.60
2017-10-07T23:03:50.978Z,6.73
2017-10-07T23:06:19.015Z,6.10
2017-10-07T23:08:46.484Z,5.43
2017-10-07T23:11:13.934Z,5.10
2017-10-07T23:13:41.412Z,5.77
2017-10-07T23:16:08.868Z,5.77
2017-10-07T23:18:36.319Z,5.80
2017-10-07T23:21:03.795Z,5.73
2017-10-07T23:23:31.244Z,6.07
2017-10-07T23:25:58.693Z,4.73
2017-10-07T23:28:26.173Z,5.80
2017-10-07T23:30:53.638Z,5.93
2017-10-07T23:33:21.089Z,5.40
2017-10-07T23:35:48.570Z,6.23
2017-10-07T23:38:16.072Z,7.70
2017-10-07T23:40:43.523Z,5.90
2017-10-07T23:43:11.006Z,7.00
2017-10-07T23:45:38.464Z,7.00
2017-10-07T23:48:05.925Z,6.40
2017-10-07T23:50:33.410Z,5.90
2017-10-07T23:53:00.866Z,6.40
2017-10-07T23:55:28.326Z,6.47
2017-10-07T23:57:55.800Z,6.10
